Time;durP1;ratioP1;P1;durP2;ratioP2;P2;SDS_P1;SDS_P2;PMS_P1;PMS_P2;Temp;Humidity;BMP_temperature;BMP_pressure;BME280_temperature;BME280_humidity;BME280_pressure;Samples;Min_cycle;Max_cycle;Signal;HPM_P1;HPM_P2
2022/04/06 00:00:52;;;;;;;14.68;7.28;;;8.60;99.90;;;;;;5108292;28;20062;-61
2022/04/06 00:03:18;;;;;;;17.42;6.85;;;;;;;;;;5092849;28;20052;-61
2022/04/06 00:05:44;;;;;;;19.08;7.85;;;8.10;99.90;;;;;;5092749;28;20072;-61
2022/04/06 00:08:10;;;;;;;17.30;7.43;;;;;;;;;;5074914;28;20071;-62
2022/04/06 00:10:36;;;;;;;16.17;6.57;;;8.40;99.90;;;;;;5092676;28;20040;-61
2022/04/06 00:13:02;;;;;;;13.55;6.50;;;8.30;99.90;;;;;;5075646;28;20043;-61
2022/04/06 00:15:27;;;;;;;16.05;7.32;;;8.30;99.90;;;;;;5091449;28;20051;-61
2022/04/06 00:17:53;;;;;;;24.73;9.77;;;8.00;99.90;;;;;;5095234;28;20389;-62
2022/04/06 00:20:19;;;;;;;16.13;7.35;;;8.60;99.90;;;;;;5114108;28;20031;-61
2022/04/06 00:22:44;;;;;;;22.55;7.95;;;8.10;99.90;;;;;;5111912;28;20118;-61
2022/04/06 00:25:10;;;;;;;18.42;8.00;;;8.10;99.90;;;;;;5114005;28;20046;-61
2022/04/06 00:27:36;;;;;;;24.13;9.45;;;8.60;99.90;;;;;;5090594;28;20040;-61
2022/04/06 00:30:04;;;;;;;15.48;7.88;;;8.20;99.90;;;;;;5101225;28;20155;-61
2022/04/06 00:32:29;;;;;;;24.30;8.55;;;8.30;99.90;;;;;;5113685;28;20039;-61
2022/04/06 00:37:39;;;;;;;22.75;9.65;;;8.50;99.90;;;;;;5113876;28;20369;-61
2022/04/06 00:40:08;;;;;;;23.02;8.70;;;8.80;99.90;;;;;;5113667;28;20384;-61
2022/04/06 00:42:33;;;;;;;20.15;8.35;;;8.70;99.90;;;;;;5112662;28;20110;-61
2022/04/06 00:45:00;;;;;;;26.02;8.32;;;8.80;99.90;;;;;;5101978;28;20123;-61
2022/04/06 00:47:25;;;;;;;21.55;8.45;;;8.30;99.90;;;;;;5092038;28;20549;-61
2022/04/06 00:49:51;;;;;;;23.70;9.77;;;8.80;99.90;;;;;;5108894;28;20088;-61
2022/04/06 00:52:17;;;;;;;27.65;9.55;;;8.50;99.90;;;;;;5112129;28;20040;-61
2022/04/06 00:54:43;;;;;;;27.23;8.73;;;8.20;99.90;;;;;;5112114;28;20492;-61
2022/04/06 00:57:09;;;;;;;23.95;9.73;;;8.20;99.90;;;;;;5107194;28;20048;-61
2022/04/06 00:59:36;;;;;;;22.10;8.40;;;8.30;99.90;;;;;;5112102;28;20388;-61
2022/04/06 01:02:02;;;;;;;22.73;9.77;;;8.70;99.90;;;;;;5111224;28;20055;-61
2022/04/06 01:04:27;;;;;;;22.45;8.32;;;8.70;99.90;;;;;;5099060;28;20032;-61
2022/04/06 01:06:53;;;;;;;17.73;7.82;;;8.80;99.90;;;;;;5090502;28;20055;-61
2022/04/06 01:09:20;;;;;;;18.55;7.35;;;8.30;99.90;;;;;;5090520;28;20040;-61
2022/04/06 01:11:49;;;;;;;18.17;7.35;;;8.50;99.90;;;;;;5090203;28;20126;-61
2022/04/06 01:14:15;;;;;;;21.52;7.90;;;8.90;99.90;;;;;;5112018;28;20036;-61
2022/04/06 01:16:41;;;;;;;17.58;7.68;;;9.00;99.90;;;;;;5111180;28;20050;-61
2022/04/06 01:19:07;;;;;;;17.42;6.70;;;;;;;;;;5098700;28;20040;-61
2022/04/06 01:21:33;;;;;;;13.85;5.70;;;8.80;99.90;;;;;;5092120;28;20036;-61
2022/04/06 01:23:59;;;;;;;16.05;5.88;;;;;;;;;;5073674;28;20047;-61
2022/04/06 01:26:25;;;;;;;12.85;5.80;;;8.90;99.90;;;;;;5089820;28;20494;-61
2022/04/06 01:28:51;;;;;;;14.05;5.75;;;8.70;99.90;;;;;;5109893;28;20131;-61
2022/04/06 01:31:17;;;;;;;15.20;5.55;;;8.90;99.90;;;;;;5105640;28;20123;-61
2022/04/06 01:33:43;;;;;;;16.48;5.45;;;8.50;99.90;;;;;;5091646;28;20082;-61
2022/04/06 01:36:10;;;;;;;14.13;5.28;;;9.00;99.90;;;;;;5091590;28;20059;-61
2022/04/06 01:38:35;;;;;;;10.95;4.35;;;8.40;99.90;;;;;;5090904;28;20059;-61
2022/04/06 01:41:02;;;;;;;17.83;5.35;;;;;;;;;;5088781;28;20425;-61
2022/04/06 01:43:27;;;;;;;11.15;4.30;;;9.10;99.90;;;;;;5090422;28;20036;-61
2022/04/06 01:45:53;;;;;;;10.73;4.10;;;9.10;99.90;;;;;;5094331;28;20499;-61
2022/04/06 01:48:19;;;;;;;11.18;4.05;;;8.50;99.90;;;;;;5111785;28;20048;-61
2022/04/06 01:53:30;;;;;;;11.45;3.85;;;;;;;;;;5109416;28;20044;-61
2022/04/06 01:55:56;;;;;;;15.15;4.63;;;8.50;99.90;;;;;;5098076;28;20055;-61
2022/04/06 01:58:23;;;;;;;11.45;4.35;;;8.50;99.90;;;;;;5089986;28;20488;-61
2022/04/06 02:00:49;;;;;;;11.05;4.30;;;8.70;99.90;;;;;;5053619;28;1064384;-61
2022/04/06 02:03:16;;;;;;;13.55;3.55;;;8.60;99.90;;;;;;5110431;28;20040;-61
2022/04/06 02:05:41;;;;;;;12.55;4.43;;;9.30;99.90;;;;;;5111071;28;20079;-61
2022/04/06 02:08:07;;;;;;;11.63;3.47;;;8.90;99.90;;;;;;5110270;28;20089;-61
2022/04/06 02:10:33;;;;;;;9.85;2.97;;;9.00;99.90;;;;;;5111436;28;20043;-61
2022/04/06 02:13:00;;;;;;;10.75;3.10;;;8.80;99.90;;;;;;5111439;28;21080;-61
2022/04/06 02:15:30;;;;;;;11.15;3.20;;;8.80;99.90;;;;;;5111498;28;20036;-61
2022/04/06 02:17:56;;;;;;;9.25;3.15;;;9.00;99.90;;;;;;5092999;28;20499;-61
2022/04/06 02:20:22;;;;;;;8.80;3.05;;;8.50;99.90;;;;;;5091152;28;20494;-61
2022/04/06 02:22:48;;;;;;;7.70;3.00;;;8.80;99.90;;;;;;5090606;28;20040;-61
2022/04/06 02:25:14;;;;;;;10.05;3.25;;;9.00;99.90;;;;;;5099339;28;20055;-61
2022/04/06 02:27:51;;;;;;;7.32;3.03;;;8.90;99.90;;;;;;5110177;28;20047;-61
2022/04/06 02:30:18;;;;;;;13.68;2.90;;;8.70;99.90;;;;;;5101369;28;20048;-61
2022/04/06 02:32:47;;;;;;;11.52;3.45;;;9.00;99.90;;;;;;5091930;28;20048;-61
2022/04/06 02:35:13;;;;;;;10.45;2.83;;;8.60;99.90;;;;;;5090885;28;20036;-61
2022/04/06 02:37:41;;;;;;;10.10;2.72;;;8.50;99.90;;;;;;5090673;28;20032;-62
2022/04/06 02:40:08;;;;;;;11.75;3.20;;;9.30;99.90;;;;;;5090202;28;20040;-62
2022/04/06 02:42:34;;;;;;;12.65;3.33;;;8.90;99.90;;;;;;5091308;28;20047;-62
2022/04/06 02:45:00;;;;;;;10.00;2.95;;;9.10;99.90;;;;;;5091705;28;20040;-62
2022/04/06 02:47:25;;;;;;;8.07;2.20;;;8.60;99.90;;;;;;5091734;28;20513;-62
2022/04/06 02:49:51;;;;;;;9.63;2.67;;;9.00;99.90;;;;;;5089409;28;20046;-62
2022/04/06 02:52:17;;;;;;;9.48;3.15;;;9.00;99.90;;;;;;5093476;28;20357;-61
2022/04/06 02:54:42;;;;;;;9.25;3.08;;;9.10;99.90;;;;;;5115931;28;20116;-61
2022/04/06 02:57:08;;;;;;;9.15;3.40;;;9.10;99.90;;;;;;5115188;28;20036;-61
2022/04/06 02:59:34;;;;;;;14.43;3.05;;;9.00;99.90;;;;;;5094509;28;20449;-62
2022/04/06 03:02:00;;;;;;;10.85;2.90;;;;;;;;;;5095047;28;20516;-61
2022/04/06 03:04:25;;;;;;;10.85;2.95;;;9.10;99.90;;;;;;5094191;28;20378;-61
2022/04/06 03:06:51;;;;;;;8.52;3.20;;;9.00;99.90;;;;;;5094797;28;20118;-61
2022/04/06 03:09:16;;;;;;;9.75;3.20;;;9.00;99.90;;;;;;5093842;28;20044;-61
2022/04/06 03:11:43;;;;;;;6.90;2.55;;;8.60;99.90;;;;;;5094051;28;20119;-62
2022/04/06 03:14:09;;;;;;;9.75;3.30;;;8.80;99.90;;;;;;5093482;28;20063;-61
2022/04/06 03:16:35;;;;;;;7.47;3.17;;;8.90;99.90;;;;;;5093248;28;20119;-61
2022/04/06 03:19:00;;;;;;;10.35;3.63;;;8.30;99.90;;;;;;5093307;28;20115;-62
2022/04/06 03:21:26;;;;;;;10.00;3.38;;;8.70;99.90;;;;;;5094766;28;20371;-61
2022/04/06 03:23:51;;;;;;;7.88;3.15;;;8.60;99.90;;;;;;5106838;28;20039;-61
2022/04/06 03:26:17;;;;;;;12.27;4.03;;;8.80;99.90;;;;;;5106182;28;20493;-61
2022/04/06 03:28:43;;;;;;;11.07;4.32;;;8.90;99.90;;;;;;5094535;28;20040;-62
2022/04/06 03:31:08;;;;;;;10.90;3.55;;;8.40;99.90;;;;;;5093792;28;20122;-62
2022/04/06 03:33:34;;;;;;;15.70;4.15;;;8.70;99.90;;;;;;5093302;28;20162;-62
2022/04/06 03:36:00;;;;;;;11.43;4.22;;;8.80;99.90;;;;;;5093387;28;20048;-62
2022/04/06 03:38:26;;;;;;;11.70;4.15;;;8.90;99.90;;;;;;5104835;28;20092;-62
2022/04/06 03:40:52;;;;;;;11.20;4.57;;;8.90;99.90;;;;;;5113458;28;20045;-62
2022/04/06 03:43:18;;;;;;;11.57;4.53;;;8.60;99.90;;;;;;5113373;28;20039;-62
2022/04/06 03:45:43;;;;;;;12.07;4.15;;;8.70;99.90;;;;;;5113801;28;20054;-61
2022/04/06 03:48:09;;;;;;;18.63;5.25;;;8.70;99.90;;;;;;5114532;28;20442;-62
2022/04/06 03:50:35;;;;;;;8.63;3.97;;;8.50;99.90;;;;;;5110087;28;20073;-62
2022/04/06 03:53:01;;;;;;;10.05;4.32;;;8.60;99.90;;;;;;5093677;28;20115;-62
2022/04/06 03:55:26;;;;;;;13.18;4.78;;;8.60;99.90;;;;;;5112440;28;20039;-62
2022/04/06 03:57:52;;;;;;;9.98;4.90;;;8.70;99.90;;;;;;5095829;28;20043;-62
2022/04/06 04:00:18;;;;;;;15.75;4.80;;;8.60;99.90;;;;;;5112260;28;20047;-61
2022/04/06 04:02:45;;;;;;;12.55;4.70;;;8.40;99.90;;;;;;5112644;28;20083;-61
2022/04/06 04:05:12;;;;;;;14.02;4.60;;;8.80;99.90;;;;;;5111996;28;20484;-62
2022/04/06 04:07:38;;;;;;;14.52;5.18;;;8.50;99.90;;;;;;5113865;28;20043;-62
2022/04/06 04:10:09;;;;;;;11.85;5.13;;;8.40;99.90;;;;;;5095327;28;20052;-62
2022/04/06 04:12:36;;;;;;;16.15;4.82;;;8.50;99.90;;;;;;5094071;28;20165;-62
2022/04/06 04:15:02;;;;;;;15.80;5.28;;;8.60;99.90;;;;;;5092975;28;20048;-62
2022/04/06 04:17:28;;;;;;;13.45;4.93;;;8.80;99.90;;;;;;5094841;28;20044;-62
2022/04/06 04:19:54;;;;;;;13.15;4.93;;;8.60;99.90;;;;;;5112030;28;20365;-61
2022/04/06 04:22:19;;;;;;;13.82;4.97;;;8.40;99.90;;;;;;5105249;28;20129;-61
2022/04/06 04:24:45;;;;;;;16.08;5.38;;;8.80;99.90;;;;;;5092269;28;20083;-61
2022/04/06 04:27:10;;;;;;;16.05;5.05;;;8.40;99.90;;;;;;5092694;28;20028;-61
2022/04/06 04:29:36;;;;;;;14.60;5.28;;;8.50;99.90;;;;;;5092502;28;20051;-61
2022/04/06 04:32:02;;;;;;;18.48;5.15;;;8.30;99.90;;;;;;5093561;28;20036;-61
2022/04/06 04:34:28;;;;;;;12.75;4.25;;;8.40;99.90;;;;;;5091493;28;20095;-61
2022/04/06 04:36:53;;;;;;;11.63;5.53;;;8.60;99.90;;;;;;5092391;28;20428;-61
2022/04/06 04:39:20;;;;;;;15.07;5.35;;;8.20;99.90;;;;;;5093269;28;20488;-61
2022/04/06 04:41:46;;;;;;;10.88;5.22;;;8.20;99.90;;;;;;5092400;28;20396;-61
2022/04/06 04:44:12;;;;;;;15.20;5.97;;;8.80;99.90;;;;;;5093060;28;20101;-61
2022/04/06 04:46:39;;;;;;;14.95;5.18;;;8.70;99.90;;;;;;5102960;28;20507;-61
2022/04/06 04:49:04;;;;;;;20.23;5.93;;;8.40;99.90;;;;;;5095257;28;20044;-61
2022/04/06 04:51:30;;;;;;;18.45;6.60;;;9.10;99.90;;;;;;5092129;28;20063;-61
2022/04/06 04:53:57;;;;;;;16.48;6.97;;;8.30;99.90;;;;;;5091899;28;20068;-61
2022/04/06 04:56:24;;;;;;;18.42;6.18;;;8.20;99.90;;;;;;5091064;28;20051;-61
2022/04/06 04:58:51;;;;;;;18.42;5.38;;;8.00;99.90;;;;;;5091665;28;20040;-61
2022/04/06 05:01:17;;;;;;;15.63;5.22;;;7.90;99.90;;;;;;5101233;28;20547;-61
2022/04/06 05:03:47;;;;;;;25.45;6.40;;;8.10;99.90;;;;;;5110770;28;20059;-61
2022/04/06 05:06:12;;;;;;;18.20;6.80;;;8.30;99.90;;;;;;5097067;28;20432;-61
2022/04/06 05:08:38;;;;;;;11.43;5.57;;;8.30;99.90;;;;;;5092892;28;20046;-61
2022/04/06 05:11:04;;;;;;;17.77;6.10;;;8.90;99.90;;;;;;5091919;28;20081;-61
2022/04/06 05:13:29;;;;;;;15.10;6.10;;;8.30;99.90;;;;;;5091836;28;20044;-61
2022/04/06 05:15:55;;;;;;;17.88;6.20;;;8.40;99.90;;;;;;5097327;28;20097;-61
2022/04/06 05:18:21;;;;;;;18.02;6.35;;;;;;;;;;5111964;28;20123;-61
2022/04/06 05:20:47;;;;;;;18.83;5.90;;;8.30;99.90;;;;;;5111761;28;20119;-61
2022/04/06 05:23:12;;;;;;;15.98;6.43;;;8.30;99.90;;;;;;5110790;28;20118;-61
2022/04/06 05:25:38;;;;;;;16.30;6.93;;;7.90;99.90;;;;;;5112867;28;20472;-61
2022/04/06 05:28:04;;;;;;;18.30;6.68;;;8.40;99.90;;;;;;5111618;28;20039;-61
2022/04/06 05:30:31;;;;;;;20.67;6.82;;;8.20;99.90;;;;;;5110615;28;20043;-61
2022/04/06 05:32:57;;;;;;;19.77;6.28;;;8.10;99.90;;;;;;5102231;28;20059;-61
2022/04/06 05:35:24;;;;;;;20.63;5.93;;;7.80;99.90;;;;;;5074040;28;20119;-61
2022/04/06 05:37:50;;;;;;;18.38;5.85;;;8.30;99.90;;;;;;5091558;28;20111;-61
2022/04/06 05:40:17;;;;;;;18.17;6.00;;;8.50;99.90;;;;;;5091971;28;20453;-61
2022/04/06 05:42:43;;;;;;;14.52;5.60;;;8.20;99.90;;;;;;5091050;28;20083;-61
2022/04/06 05:45:10;;;;;;;13.32;5.95;;;8.20;99.90;;;;;;5107906;28;20078;-61
2022/04/06 05:47:37;;;;;;;17.08;6.03;;;8.20;99.90;;;;;;5109951;28;20053;-61
2022/04/06 05:50:05;;;;;;;14.95;5.82;;;8.20;99.90;;;;;;5111294;28;20048;-61
2022/04/06 05:52:31;;;;;;;18.98;6.97;;;8.20;99.90;;;;;;5110799;28;20051;-61
2022/04/06 05:54:57;;;;;;;22.15;6.03;;;8.40;99.90;;;;;;5094413;28;20036;-61
2022/04/06 05:57:23;;;;;;;16.90;6.50;;;8.50;99.90;;;;;;5112453;28;20035;-61
2022/04/06 05:59:49;;;;;;;22.20;7.18;;;7.80;99.90;;;;;;5111485;28;20051;-61
2022/04/06 06:02:14;;;;;;;17.73;6.63;;;8.20;99.90;;;;;;5109310;28;20454;-61
2022/04/06 06:04:40;;;;;;;12.45;6.20;;;8.40;99.90;;;;;;5112496;28;20122;-61
2022/04/06 06:07:06;;;;;;;16.15;6.32;;;8.20;99.90;;;;;;5111893;28;20047;-61
2022/04/06 06:09:33;;;;;;;25.63;7.15;;;8.30;99.90;;;;;;5112453;28;20492;-61
2022/04/06 06:11:59;;;;;;;15.93;6.28;;;;;;;;;;5103652;28;20048;-61
2022/04/06 06:14:26;;;;;;;16.08;5.68;;;8.10;99.90;;;;;;5091261;28;20044;-61
2022/04/06 06:16:52;;;;;;;13.52;6.03;;;8.40;99.90;;;;;;5090682;28;20090;-61
2022/04/06 06:19:18;;;;;;;18.40;5.35;;;8.20;99.90;;;;;;5090967;28;20048;-62
2022/04/06 06:21:45;;;;;;;21.90;7.05;;;7.90;99.90;;;;;;5091213;28;20040;-62
2022/04/06 06:24:10;;;;;;;17.50;6.93;;;8.40;99.90;;;;;;5090962;28;20048;-62
2022/04/06 06:26:37;;;;;;;26.13;6.32;;;8.00;99.90;;;;;;5090533;28;20059;-61
2022/04/06 06:29:03;;;;;;;24.40;6.47;;;8.30;99.90;;;;;;5067719;28;20040;-62
2022/04/06 06:31:29;;;;;;;19.02;5.70;;;8.30;99.90;;;;;;5110087;28;20424;-61
2022/04/06 06:33:56;;;;;;;19.73;4.95;;;8.40;99.90;;;;;;5115408;28;20048;-62
2022/04/06 06:36:23;;;;;;;15.40;5.07;;;;;;;;;;5109091;28;20060;-61
2022/04/06 06:38:49;;;;;;;16.08;5.57;;;;;;;;;;5100048;28;20058;-62
2022/04/06 06:41:15;;;;;;;11.63;4.30;;;;;;;;;;5110534;28;20577;-62
2022/04/06 06:43:41;;;;;;;14.57;4.75;;;8.40;99.90;;;;;;5114747;28;20031;-61
2022/04/06 06:46:07;;;;;;;14.25;5.22;;;;;;;;;;5104581;28;20035;-61
2022/04/06 06:48:32;;;;;;;14.07;4.40;;;7.90;99.90;;;;;;5113003;28;20039;-61
2022/04/06 06:50:58;;;;;;;11.32;4.50;;;8.00;99.90;;;;;;5110390;28;20479;-62
2022/04/06 06:53:23;;;;;;;16.85;4.65;;;8.40;99.90;;;;;;5095095;28;20064;-62
2022/04/06 06:55:49;;;;;;;17.58;6.88;;;8.50;99.90;;;;;;5096489;28;20047;-61
2022/04/06 06:58:15;;;;;;;14.15;5.18;;;8.70;99.90;;;;;;5110351;28;20032;-61
2022/04/06 07:00:40;;;;;;;16.60;5.80;;;8.40;99.90;;;;;;5113328;28;20052;-62
2022/04/06 07:03:06;;;;;;;15.75;4.72;;;8.10;99.90;;;;;;5112799;28;20492;-61
2022/04/06 07:05:31;;;;;;;14.77;4.88;;;8.60;99.90;;;;;;5112517;28;20031;-62
2022/04/06 07:07:59;;;;;;;12.52;4.30;;;8.60;99.90;;;;;;5097524;28;20089;-62
2022/04/06 07:10:25;;;;;;;15.73;4.60;;;8.00;99.90;;;;;;5103185;28;20047;-62
2022/04/06 07:12:52;;;;;;;12.70;4.15;;;8.00;99.90;;;;;;5093221;28;20044;-61
2022/04/06 07:15:18;;;;;;;19.55;4.78;;;8.40;99.90;;;;;;5093252;28;20044;-62
2022/04/06 07:17:44;;;;;;;17.83;4.68;;;;;;;;;;5095569;28;20097;-62
2022/04/06 07:20:11;;;;;;;15.70;4.70;;;8.30;99.90;;;;;;5096906;28;20043;-61
2022/04/06 07:22:36;;;;;;;17.77;4.38;;;8.30;99.90;;;;;;5108219;28;20066;-62
2022/04/06 07:25:03;;;;;;;11.73;4.40;;;8.20;99.90;;;;;;5104356;28;20064;-62
2022/04/06 07:27:36;;;;;;;10.95;3.72;;;8.30;99.90;;;;;;5107085;28;20051;-62
2022/04/06 07:30:03;;;;;;;19.88;4.82;;;8.30;99.90;;;;;;5097649;28;20534;-62
2022/04/06 07:32:29;;;;;;;22.02;4.60;;;;;;;;;;5095335;28;20044;-62
2022/04/06 07:34:56;;;;;;;14.20;4.57;;;;;;;;;;5105777;28;20179;-62
2022/04/06 07:37:22;;;;;;;20.27;4.85;;;;;;;;;;5100746;28;20039;-62
2022/04/06 07:39:48;;;;;;;18.00;4.25;;;;;;;;;;5101903;28;20032;-62
2022/04/06 07:42:14;;;;;;;15.95;4.50;;;;;;;;;;5091962;28;20381;-62
2022/04/06 07:44:40;;;;;;;13.63;4.55;;;;;;;;;;5102206;28;20039;-62
2022/04/06 07:47:05;;;;;;;16.45;4.30;;;8.10;99.90;;;;;;5096239;28;20388;-62
2022/04/06 07:49:31;;;;;;;13.38;4.28;;;;;;;;;;5102749;28;20035;-61
2022/04/06 07:51:57;;;;;;;22.08;3.80;;;;;;;;;;5110600;27;20050;-61
2022/04/06 07:54:23;;;;;;;16.70;4.22;;;8.60;99.90;;;;;;5107767;28;20044;-61
2022/04/06 07:56:49;;;;;;;18.55;4.80;;;;;;;;;;5107081;28;20050;-61
2022/04/06 07:59:15;;;;;;;22.30;5.75;;;;;;;;;;5100218;28;20408;-61
2022/04/06 08:01:41;;;;;;;15.05;4.85;;;;;;;;;;5109509;28;20051;-61
2022/04/06 08:04:07;;;;;;;14.18;4.28;;;;;;;;;;5109315;28;20052;-61
2022/04/06 08:06:33;;;;;;;10.93;4.55;;;;;;;;;;5108642;28;20047;-61
2022/04/06 08:08:59;;;;;;;15.48;4.07;;;8.70;99.90;;;;;;5104158;28;20507;-62
2022/04/06 08:11:26;;;;;;;24.13;4.95;;;8.30;99.90;;;;;;5106460;28;20080;-61
2022/04/06 08:13:51;;;;;;;12.85;3.25;;;8.30;99.90;;;;;;5091290;28;20455;-61
2022/04/06 08:16:17;;;;;;;10.23;3.90;;;;;;;;;;5090588;28;20161;-61
2022/04/06 08:18:43;;;;;;;19.65;4.75;;;;;;;;;;5090468;28;20414;-61
2022/04/06 08:21:09;;;;;;;14.82;3.78;;;8.30;99.90;;;;;;5089360;28;20416;-61
2022/04/06 08:23:35;;;;;;;14.60;4.13;;;;;;;;;;5092326;28;20028;-61
2022/04/06 08:26:01;;;;;;;11.32;3.60;;;;;;;;;;5097866;28;20047;-61
2022/04/06 08:28:27;;;;;;;22.20;4.50;;;;;;;;;;5107560;28;20119;-61
2022/04/06 08:30:54;;;;;;;19.00;4.63;;;;;;;;;;5107484;28;20047;-61
2022/04/06 08:33:19;;;;;;;16.10;4.68;;;8.90;99.90;;;;;;5108243;28;20455;-61
2022/04/06 08:35:45;;;;;;;12.57;4.22;;;;;;;;;;5099032;28;20119;-61
2022/04/06 08:38:13;;;;;;;15.10;3.38;;;8.80;99.90;;;;;;5091690;28;20374;-61
2022/04/06 08:40:41;;;;;;;14.98;3.88;;;8.90;99.90;;;;;;5102473;28;20582;-61
2022/04/06 08:43:08;;;;;;;12.25;3.78;;;8.90;99.90;;;;;;5100831;28;20492;-61
2022/04/06 08:45:39;;;;;;;11.77;3.58;;;8.90;99.90;;;;;;5106269;28;20074;-61
2022/04/06 08:48:10;;;;;;;10.18;3.28;;;9.10;99.90;;;;;;5101965;28;20516;-61
2022/04/06 08:50:37;;;;;;;17.27;5.10;;;8.60;99.90;;;;;;5105497;28;20450;-61
2022/04/06 08:53:04;;;;;;;18.88;4.22;;;8.90;99.90;;;;;;5107955;28;20066;-61
2022/04/06 08:55:31;;;;;;;9.50;3.70;;;9.00;99.90;;;;;;5092273;28;20043;-61
2022/04/06 08:57:58;;;;;;;19.88;5.63;;;8.90;99.90;;;;;;5090785;28;20043;-62
2022/04/06 09:00:26;;;;;;;13.30;3.40;;;9.10;99.90;;;;;;5091551;28;20671;-61
2022/04/06 09:02:52;;;;;;;15.90;4.63;;;9.00;99.90;;;;;;5088881;28;20488;-61
2022/04/06 09:05:23;;;;;;;14.80;4.80;;;9.50;99.90;;;;;;5089433;28;20115;-61
2022/04/06 09:07:51;;;;;;;13.82;4.57;;;9.00;99.90;;;;;;5090241;28;20463;-61
2022/04/06 09:10:38;;;;;;;12.30;3.40;;;9.60;99.90;;;;;;5101142;28;20101;-61
2022/04/06 09:13:17;;;;;;;10.45;3.58;;;9.60;99.90;;;;;;5074179;28;20115;-61
2022/04/06 09:15:44;;;;;;;10.23;3.50;;;9.90;99.90;;;;;;5096298;28;20075;-61
2022/04/06 09:18:10;;;;;;;16.65;4.97;;;10.10;99.90;;;;;;5110782;28;20399;-61
2022/04/06 09:20:35;;;;;;;24.33;5.47;;;10.10;99.90;;;;;;5109294;28;20089;-61
2022/04/06 09:23:04;;;;;;;12.18;3.80;;;10.00;99.90;;;;;;5108308;28;20856;-61
2022/04/06 09:25:34;;;;;;;20.40;5.00;;;10.00;99.90;;;;;;5109951;28;20254;-62
2022/04/06 09:28:08;;;;;;;13.55;3.75;;;10.60;99.90;;;;;;5105304;28;20487;-61
2022/04/06 09:30:37;;;;;;;13.93;4.00;;;10.10;99.90;;;;;;5092169;28;20428;-61
2022/04/06 09:33:03;;;;;;;13.55;4.55;;;10.30;99.90;;;;;;5091232;28;20064;-61
2022/04/06 09:35:30;;;;;;;12.57;3.67;;;10.20;99.90;;;;;;5092669;28;20044;-61
2022/04/06 09:38:12;;;;;;;12.93;3.92;;;10.30;99.90;;;;;;5110643;28;20046;-61
2022/04/06 09:40:39;;;;;;;10.77;4.20;;;10.00;99.90;;;;;;5097704;28;20040;-61
2022/04/06 09:43:04;;;;;;;15.00;4.00;;;10.20;99.90;;;;;;5099560;28;20493;-61
2022/04/06 09:48:15;;;;;;;12.15;3.85;;;10.00;99.90;;;;;;5092298;28;20547;-61
2022/04/06 09:50:51;;;;;;;18.55;5.25;;;10.10;99.90;;;;;;5090720;28;20178;-61
2022/04/06 09:53:17;;;;;;;13.00;3.47;;;10.20;99.90;;;;;;5110660;28;20046;-61
2022/04/06 09:55:44;;;;;;;9.43;3.97;;;10.10;99.90;;;;;;5110870;28;20043;-61
2022/04/06 09:58:13;;;;;;;13.55;4.15;;;10.50;99.90;;;;;;5111498;28;20407;-61
2022/04/06 10:00:39;;;;;;;17.40;6.00;;;10.30;99.90;;;;;;5110808;28;20051;-61
2022/04/06 10:03:06;;;;;;;14.98;3.85;;;10.30;99.90;;;;;;5101201;28;20396;-60
2022/04/06 10:05:33;;;;;;;14.88;5.20;;;9.90;99.90;;;;;;5083666;28;20506;-61
2022/04/06 10:08:06;;;;;;;15.45;4.40;;;10.20;99.90;;;;;;5114413;27;20051;-61
2022/04/06 10:10:33;;;;;;;13.00;4.00;;;;;;;;;;5115333;28;20028;-61
2022/04/06 10:13:01;;;;;;;13.98;4.20;;;10.20;99.90;;;;;;5102238;28;20899;-61
2022/04/06 10:15:27;;;;;;;12.55;4.63;;;;;;;;;;5096758;28;20046;-61
2022/04/06 10:17:53;;;;;;;15.15;4.68;;;;;;;;;;5114670;28;20035;-61
2022/04/06 10:20:32;;;;;;;12.77;4.57;;;;;;;;;;5113736;28;20043;-61
2022/04/06 10:23:14;;;;;;;16.27;5.22;;;;;;;;;;5114940;28;20066;-61
2022/04/06 10:25:43;;;;;;;17.92;5.90;;;;;;;;;;5108572;27;20040;-62
2022/04/06 10:28:12;;;;;;;18.02;6.57;;;;;;;;;;5095471;28;20043;-61
2022/04/06 10:30:38;;;;;;;22.02;6.38;;;;;;;;;;5102517;28;20376;-61
2022/04/06 10:33:21;;;;;;;15.45;4.80;;;;;;;;;;5098624;28;20113;-62
2022/04/06 10:35:47;;;;;;;16.73;4.43;;;;;;;;;;5107105;28;20036;-62
2022/04/06 10:38:14;;;;;;;16.77;5.75;;;;;;;;;;5099926;28;20047;-62
2022/04/06 10:40:46;;;;;;;17.20;4.35;;;;;;;;;;5102411;28;20039;-61
2022/04/06 10:43:31;;;;;;;15.23;5.03;;;;;;;;;;5104893;28;20380;-61
2022/04/06 10:45:58;;;;;;;16.23;5.30;;;;;;;;;;5096577;28;20110;-61
2022/04/06 10:48:24;;;;;;;17.85;4.95;;;;;;;;;;5109307;28;20518;-61
2022/04/06 10:50:50;;;;;;;12.10;4.03;;;;;;;;;;5106671;28;20040;-63
2022/04/06 10:53:22;;;;;;;13.48;5.25;;;;;;;;;;5095523;28;20083;-61
2022/04/06 10:56:16;;;;;;;15.30;5.53;;;;;;;;;;5089006;28;20036;-61
2022/04/06 10:58:54;;;;;;;16.58;4.35;;;;;;;;;;5101463;28;20511;-61
2022/04/06 11:01:26;;;;;;;14.13;5.15;;;;;;;;;;5094804;28;20109;-61
2022/04/06 11:04:04;;;;;;;16.15;5.15;;;;;;;;;;5094877;28;20043;-61
2022/04/06 11:07:03;;;;;;;15.77;5.00;;;;;;;;;;5104830;28;20119;-61
2022/04/06 11:12:24;;;;;;;14.03;4.70;;;10.80;99.90;;;;;;5114476;28;20036;-61
2022/04/06 11:15:10;;;;;;;18.75;4.85;;;10.80;99.90;;;;;;5094778;28;20534;-61
2022/04/06 11:17:42;;;;;;;;;;;10.90;99.90;;;;;;5103665;28;20495;-60
2022/04/06 11:20:09;;;;;;;14.27;4.70;;;10.90;99.90;;;;;;5109612;28;19919;-61
2022/04/06 11:22:44;;;;;;;20.10;5.63;;;10.90;99.90;;;;;;5109787;28;20051;-61
2022/04/06 11:25:14;;;;;;;11.90;4.30;;;11.30;99.90;;;;;;5094377;28;20050;-61
2022/04/06 11:27:42;;;;;;;11.73;4.13;;;11.10;99.90;;;;;;5097529;28;20031;-61
2022/04/06 11:30:09;;;;;;;12.10;4.22;;;;;;;;;;5111903;28;20057;-61
2022/04/06 11:32:36;;;;;;;12.50;3.63;;;;;;;;;;5113013;28;20039;-60
2022/04/06 11:35:10;;;;;;;12.15;3.55;;;11.50;99.90;;;;;;5109230;28;20118;-60
2022/04/06 11:37:43;;;;;;;15.68;4.38;;;11.10;99.90;;;;;;5091741;28;20105;-60
2022/04/06 11:40:10;;;;;;;10.70;3.92;;;11.30;99.90;;;;;;5106658;28;20104;-61
2022/04/06 11:42:36;;;;;;;10.63;3.75;;;12.00;99.90;;;;;;5111582;28;20050;-60
2022/04/06 11:45:02;;;;;;;11.00;4.20;;;11.60;99.90;;;;;;5106492;28;20040;-61
2022/04/06 11:47:32;;;;;;;14.27;3.58;;;11.90;99.90;;;;;;5096696;28;20503;-61
2022/04/06 11:49:59;;;;;;;17.98;4.13;;;;;;;;;;5108516;28;20052;-61
2022/04/06 11:52:25;;;;;;;9.20;3.35;;;12.20;99.90;;;;;;5112538;28;20143;-62
2022/04/06 11:54:55;;;;;;;15.30;4.18;;;12.20;99.90;;;;;;5113031;28;20123;-61
2022/04/06 11:57:35;;;;;;;18.58;5.85;;;11.80;99.90;;;;;;5112130;28;20036;-62
2022/04/06 12:00:07;;;;;;;14.65;5.32;;;12.00;99.90;;;;;;5095874;28;20051;-62
2022/04/06 12:02:52;;;;;;;20.08;4.47;;;12.10;99.90;;;;;;5113104;28;20040;-62
2022/04/06 12:05:18;;;;;;;23.17;4.68;;;11.90;99.90;;;;;;5086093;28;20434;-60
2022/04/06 12:07:45;;;;;;;17.48;4.47;;;11.90;99.90;;;;;;5096745;28;20503;-60
2022/04/06 12:10:11;;;;;;;15.82;4.88;;;;;;;;;;5100060;28;20503;-60
2022/04/06 12:12:37;;;;;;;15.05;4.57;;;11.90;99.90;;;;;;5095556;28;20122;-61
2022/04/06 12:15:04;;;;;;;16.42;4.25;;;12.00;99.90;;;;;;5093763;28;20115;-61
2022/04/06 12:17:32;;;;;;;12.07;4.65;;;11.80;99.90;;;;;;5093617;28;20093;-61
2022/04/06 12:19:59;;;;;;;12.75;3.92;;;11.80;99.90;;;;;;5091688;28;20043;-61
2022/04/06 12:22:27;;;;;;;17.60;5.00;;;12.00;99.90;;;;;;5093463;28;20036;-61
2022/04/06 12:24:53;;;;;;;16.55;4.22;;;11.90;99.90;;;;;;5092487;28;20098;-61
2022/04/06 12:27:29;;;;;;;16.20;4.57;;;12.20;99.90;;;;;;5092808;28;20051;-61
2022/04/06 12:30:09;;;;;;;14.32;4.50;;;12.00;99.90;;;;;;5093462;28;20044;-61
2022/04/06 12:32:45;;;;;;;13.52;4.25;;;12.00;99.90;;;;;;5091499;28;20047;-61
2022/04/06 12:35:23;;;;;;;15.10;4.72;;;12.30;99.90;;;;;;5075034;28;20044;-61
2022/04/06 12:37:50;;;;;;;15.15;4.78;;;12.10;99.90;;;;;;5093322;28;20072;-61
2022/04/06 12:40:23;;;;;;;13.70;4.40;;;12.10;99.90;;;;;;5092247;28;20496;-61
2022/04/06 12:42:49;;;;;;;12.57;3.58;;;12.20;99.90;;;;;;5093170;28;20040;-61
2022/04/06 12:45:15;;;;;;;14.82;3.83;;;12.20;99.90;;;;;;5091985;28;20431;-61
2022/04/06 12:47:41;;;;;;;16.67;3.83;;;12.10;99.90;;;;;;5090806;28;20044;-61
2022/04/06 12:50:18;;;;;;;12.25;4.50;;;11.80;99.90;;;;;;5092220;28;20062;-61
2022/04/06 12:53:03;;;;;;;12.25;4.05;;;11.80;99.90;;;;;;5093285;28;20047;-61
2022/04/06 12:55:29;;;;;;;14.90;4.90;;;12.10;99.90;;;;;;5090740;28;20123;-61
2022/04/06 12:58:16;;;;;;;16.45;5.28;;;11.50;99.90;;;;;;5091753;28;20135;-61
2022/04/06 13:00:43;;;;;;;15.60;4.47;;;11.90;99.90;;;;;;5091578;28;20123;-61
2022/04/06 13:03:09;;;;;;;11.80;4.90;;;11.50;99.90;;;;;;5092899;28;20048;-61
2022/04/06 13:05:35;;;;;;;11.10;4.18;;;12.60;99.90;;;;;;5091871;28;20621;-61
2022/04/06 13:08:05;;;;;;;14.50;4.57;;;11.60;99.90;;;;;;5090631;28;20040;-61
2022/04/06 13:10:37;;;;;;;16.83;4.78;;;11.70;99.90;;;;;;5091490;28;20143;-61
2022/04/06 13:13:03;;;;;;;13.30;5.15;;;11.70;99.90;;;;;;5091293;28;20039;-61
2022/04/06 13:15:30;;;;;;;15.18;3.85;;;11.50;99.90;;;;;;5090253;28;20454;-61